Terminal Aerodrome Forecast
Issued by NWS San Angelo, TX

Home | Current Version | Previous Version | Text Only | Print | Product List | Glossary On
Versions: 1 2 3 4 5 6 7 8 9 10 11 12 13 14 15
000
FTUS44 KSJT 242338
TAFABI
TAF
KABI 242338Z 2500/2524 12010KT P6SM SCT080
     FM250200 16006KT P6SM SKC
     FM251500 17007KT P6SM SKC
     FM251900 12008KT P6SM SCT070=

USA.gov is the U.S. government's official web portal to all federal, state and local government web resources and services.